Time;durP1;ratioP1;P1;durP2;ratioP2;P2;SDS_P1;SDS_P2;PMS_P1;PMS_P2;Temp;Humidity;BMP_temperature;BMP_pressure;BME280_temperature;BME280_humidity;BME280_pressure;Samples;Min_cycle;Max_cycle;Signal;HPM_P1;HPM_P2
2023/08/20 00:00:12;;;;;;;7.10;4.40;;;18.70;99.90;;;;;;5050978;28;20261;-77
2023/08/20 00:02:41;;;;;;;10.70;3.93;;;18.70;99.90;;;;;;5056154;28;20809;-76
2023/08/20 00:05:07;;;;;;;10.17;3.97;;;18.60;99.90;;;;;;5056391;28;20192;-77
2023/08/20 00:07:33;;;;;;;6.90;4.00;;;18.70;99.90;;;;;;5054883;28;20530;-76
2023/08/20 00:09:58;;;;;;;10.93;4.30;;;18.60;99.90;;;;;;5056031;28;20198;-77
2023/08/20 00:12:25;;;;;;;8.80;4.40;;;18.70;99.90;;;;;;5054432;28;20204;-76
2023/08/20 00:14:54;;;;;;;7.40;3.73;;;18.60;99.90;;;;;;5054119;28;20218;-77
2023/08/20 00:17:20;;;;;;;6.63;3.97;;;18.60;99.90;;;;;;5055530;28;20182;-77
2023/08/20 00:19:49;;;;;;;8.87;4.67;;;18.60;99.90;;;;;;5055568;28;20231;-77
2023/08/20 00:22:15;;;;;;;6.77;4.10;;;18.60;99.90;;;;;;5054770;28;20210;-77
2023/08/20 00:24:41;;;;;;;8.40;4.27;;;18.60;99.90;;;;;;5055825;28;20176;-77
2023/08/20 00:27:06;;;;;;;12.00;4.87;;;18.50;99.90;;;;;;5056568;28;20172;-77
2023/08/20 00:29:32;;;;;;;12.67;5.00;;;18.50;99.90;;;;;;5055874;28;20200;-77
2023/08/20 00:31:57;;;;;;;7.70;4.97;;;18.40;99.90;;;;;;5039184;28;20216;-77
2023/08/20 00:34:23;;;;;;;10.93;4.90;;;18.50;99.90;;;;;;5035418;28;20258;-77
2023/08/20 00:36:48;;;;;;;7.17;4.33;;;18.60;99.90;;;;;;5035490;28;20259;-77
2023/08/20 00:39:15;;;;;;;12.37;5.10;;;18.40;99.90;;;;;;5035439;28;20267;-77
2023/08/20 00:41:40;;;;;;;7.63;4.87;;;18.40;99.90;;;;;;5035213;28;20188;-76
2023/08/20 00:44:06;;;;;;;9.67;4.77;;;18.40;99.90;;;;;;5035240;28;20612;-77
2023/08/20 00:46:32;;;;;;;11.20;4.70;;;18.40;99.90;;;;;;5034708;28;20552;-77
2023/08/20 00:48:57;;;;;;;11.30;5.40;;;18.40;99.90;;;;;;5035097;28;20294;-77
2023/08/20 00:51:24;;;;;;;6.50;4.23;;;18.40;99.90;;;;;;5034963;28;20185;-77
2023/08/20 00:53:50;;;;;;;8.07;4.40;;;18.30;99.90;;;;;;5034965;28;20180;-77
2023/08/20 00:56:16;;;;;;;11.60;4.30;;;18.30;99.90;;;;;;5035088;28;20181;-77
2023/08/20 00:58:42;;;;;;;8.00;5.17;;;18.30;99.90;;;;;;5034964;28;20288;-77
2023/08/20 01:01:08;;;;;;;15.73;5.07;;;18.30;99.90;;;;;;5034933;28;20192;-76
2023/08/20 01:03:33;;;;;;;12.00;4.90;;;18.30;99.90;;;;;;5048534;28;20209;-77
2023/08/20 01:06:28;;;;;;;22.30;5.40;;;18.20;99.90;;;;;;5054289;28;20190;-76
2023/08/20 01:09:01;;;;;;;8.13;4.53;;;18.20;99.90;;;;;;5050145;28;20187;-77
2023/08/20 01:11:37;;;;;;;11.33;5.37;;;18.20;99.90;;;;;;5054340;28;20202;-77
2023/08/20 01:14:03;;;;;;;13.70;5.67;;;18.20;99.90;;;;;;5054292;28;20457;-76
2023/08/20 01:16:28;;;;;;;9.77;5.43;;;18.10;99.90;;;;;;5054491;28;20176;-77
2023/08/20 01:18:54;;;;;;;8.27;4.93;;;18.10;99.90;;;;;;5052528;28;20195;-77
2023/08/20 01:21:42;;;;;;;13.80;6.03;;;18.10;99.90;;;;;;5051585;28;20206;-77
2023/08/20 01:24:14;;;;;;;13.07;5.30;;;18.10;99.90;;;;;;5035953;28;20180;-77
2023/08/20 01:26:52;;;;;;;10.90;5.03;;;18.00;99.90;;;;;;5036836;28;20157;-77
2023/08/20 01:29:18;;;;;;;6.30;5.10;;;18.00;99.90;;;;;;5036974;28;20179;-77
2023/08/20 01:31:44;;;;;;;9.10;5.10;;;18.00;99.90;;;;;;5037059;28;20191;-77
2023/08/20 01:34:10;;;;;;;12.63;4.80;;;18.00;99.90;;;;;;5037635;28;20663;-77
2023/08/20 01:36:35;;;;;;;10.90;5.70;;;18.00;99.90;;;;;;5055758;28;20178;-76
2023/08/20 01:39:01;;;;;;;9.17;5.30;;;18.20;99.90;;;;;;5055924;28;20557;-77
2023/08/20 01:41:26;;;;;;;11.03;5.40;;;18.00;99.90;;;;;;5055331;28;20195;-77
2023/08/20 01:43:52;;;;;;;15.53;5.13;;;18.00;99.90;;;;;;5054307;28;20250;-77
2023/08/20 01:46:17;;;;;;;10.93;6.07;;;18.00;99.90;;;;;;5037947;28;20184;-78
2023/08/20 01:48:43;;;;;;;15.40;6.37;;;18.00;99.90;;;;;;5048507;28;20180;-77
2023/08/20 01:51:09;;;;;;;14.17;6.10;;;17.90;99.90;;;;;;5034087;28;20238;-78
2023/08/20 01:53:35;;;;;;;11.97;5.50;;;17.90;99.90;;;;;;5049615;28;20180;-77
2023/08/20 01:56:00;;;;;;;10.93;6.10;;;18.00;99.90;;;;;;5034158;28;20187;-77
2023/08/20 01:58:26;;;;;;;13.97;6.77;;;17.90;99.90;;;;;;5034245;28;20172;-77
2023/08/20 02:00:52;;;;;;;11.23;6.20;;;17.90;99.90;;;;;;5053759;28;20266;-78
2023/08/20 02:03:17;;;;;;;11.10;5.97;;;17.90;99.90;;;;;;5054412;28;20242;-77
2023/08/20 02:05:43;;;;;;;13.97;5.90;;;17.90;99.90;;;;;;5054040;28;20211;-77
2023/08/20 02:08:08;;;;;;;23.07;6.63;;;17.90;99.90;;;;;;5052923;28;20187;-77
2023/08/20 02:10:34;;;;;;;11.53;6.17;;;17.90;99.90;;;;;;5054394;28;20172;-77
2023/08/20 02:13:00;;;;;;;9.10;5.97;;;17.90;99.90;;;;;;5054456;28;20221;-77
2023/08/20 02:15:25;;;;;;;13.70;5.97;;;17.90;99.90;;;;;;5044420;28;20270;-77
2023/08/20 02:17:51;;;;;;;9.97;6.00;;;17.90;99.90;;;;;;5054718;28;20657;-77
2023/08/20 02:20:17;;;;;;;12.17;6.27;;;17.90;99.90;;;;;;5054732;28;20203;-77
2023/08/20 02:22:43;;;;;;;14.50;6.27;;;18.00;99.90;;;;;;5054073;28;20195;-77
2023/08/20 02:25:08;;;;;;;12.57;5.83;;;17.80;99.90;;;;;;5053046;28;20221;-78
2023/08/20 02:27:34;;;;;;;8.17;5.53;;;18.00;99.90;;;;;;5044158;28;20172;-77
2023/08/20 02:29:59;;;;;;;13.20;5.97;;;18.00;99.90;;;;;;5034175;28;20584;-77
2023/08/20 02:32:25;;;;;;;17.93;6.43;;;18.10;99.90;;;;;;5033250;28;20192;-77
2023/08/20 02:34:51;;;;;;;11.77;6.37;;;18.10;99.90;;;;;;5034399;28;20271;-77
2023/08/20 02:37:17;;;;;;;16.20;6.50;;;18.10;99.90;;;;;;5033940;28;20186;-77
2023/08/20 02:39:42;;;;;;;14.27;6.97;;;18.10;99.90;;;;;;5034239;28;20620;-77
2023/08/20 02:42:08;;;;;;;12.20;6.77;;;18.20;99.90;;;;;;5033319;28;20204;-77
2023/08/20 02:44:33;;;;;;;12.53;6.60;;;18.20;99.90;;;;;;5036634;28;20214;-77
2023/08/20 02:46:59;;;;;;;9.33;7.20;;;18.20;99.90;;;;;;5041063;28;20172;-77
2023/08/20 02:49:24;;;;;;;11.60;6.87;;;18.30;99.90;;;;;;5040173;28;20208;-77
2023/08/20 02:51:50;;;;;;;12.60;7.10;;;18.20;99.90;;;;;;5039794;28;20203;-77
2023/08/20 02:54:15;;;;;;;14.77;7.27;;;18.20;99.90;;;;;;5039676;28;20179;-77
2023/08/20 02:56:41;;;;;;;12.07;7.13;;;18.20;99.90;;;;;;5039433;28;20187;-77
2023/08/20 02:59:07;;;;;;;10.50;6.20;;;18.20;99.90;;;;;;5039665;28;20207;-77
2023/08/20 03:01:32;;;;;;;11.70;6.23;;;18.20;99.90;;;;;;5039739;28;20275;-78
2023/08/20 03:03:58;;;;;;;15.23;7.20;;;18.20;99.90;;;;;;5039612;28;20168;-77
2023/08/20 03:06:23;;;;;;;14.57;7.40;;;18.20;99.90;;;;;;5039472;28;20168;-78
2023/08/20 03:08:49;;;;;;;12.63;6.70;;;18.00;99.90;;;;;;5039965;28;20255;-77
2023/08/20 03:11:15;;;;;;;12.30;7.17;;;18.20;99.90;;;;;;5040075;28;20203;-77
2023/08/20 03:13:40;;;;;;;12.00;6.90;;;18.20;99.90;;;;;;5056599;28;20186;-77
2023/08/20 03:16:06;;;;;;;16.67;6.60;;;18.20;99.90;;;;;;5058650;28;20597;-77
2023/08/20 03:18:31;;;;;;;9.77;6.87;;;18.20;99.90;;;;;;5060163;28;20289;-77
2023/08/20 03:20:57;;;;;;;16.93;7.43;;;18.10;99.90;;;;;;5060331;28;20183;-77
2023/08/20 03:23:23;;;;;;;12.10;6.80;;;18.20;99.90;;;;;;5060173;28;20167;-77
2023/08/20 03:25:49;;;;;;;11.73;6.97;;;18.10;99.90;;;;;;5060435;28;20270;-78
2023/08/20 03:28:15;;;;;;;11.57;7.30;;;18.10;99.90;;;;;;5057798;28;20722;-77
2023/08/20 03:30:41;;;;;;;10.23;6.77;;;18.10;99.90;;;;;;5060312;28;20175;-78
2023/08/20 03:33:07;;;;;;;12.63;7.53;;;18.20;99.90;;;;;;5060800;28;20538;-77
2023/08/20 03:35:32;;;;;;;9.90;7.40;;;18.30;99.90;;;;;;5061006;28;20176;-78
2023/08/20 03:37:58;;;;;;;11.33;7.33;;;18.10;99.90;;;;;;5060403;28;20205;-76
2023/08/20 03:40:27;;;;;;;16.70;7.60;;;18.10;99.90;;;;;;5058691;28;20199;-77
2023/08/20 03:42:52;;;;;;;13.47;7.47;;;18.10;99.90;;;;;;5057536;28;20585;-78
2023/08/20 03:45:18;;;;;;;10.00;6.53;;;18.10;99.90;;;;;;5057607;28;20206;-77
2023/08/20 03:47:46;;;;;;;9.87;6.47;;;18.20;99.90;;;;;;5060215;28;20211;-77
2023/08/20 03:50:12;;;;;;;10.37;6.33;;;18.20;99.90;;;;;;5059581;28;20221;-77
2023/08/20 03:52:39;;;;;;;10.83;6.10;;;18.10;99.90;;;;;;5059215;28;20206;-77
2023/08/20 03:55:05;;;;;;;12.67;6.17;;;18.20;99.90;;;;;;5058440;28;20167;-77
2023/08/20 03:57:30;;;;;;;12.67;6.60;;;18.10;99.90;;;;;;5056388;28;20175;-77
2023/08/20 03:59:56;;;;;;;12.43;6.33;;;18.10;99.90;;;;;;5054355;28;20274;-77
2023/08/20 04:02:21;;;;;;;9.73;7.13;;;18.10;99.90;;;;;;5055834;28;20202;-77
2023/08/20 04:04:47;;;;;;;9.27;7.57;;;18.10;99.90;;;;;;5055938;28;20172;-77
2023/08/20 04:07:12;;;;;;;10.93;6.90;;;18.00;99.90;;;;;;5055742;28;20195;-77
2023/08/20 04:09:38;;;;;;;10.07;7.13;;;18.00;99.90;;;;;;5055413;28;20175;-77
2023/08/20 04:12:04;;;;;;;15.67;6.60;;;18.00;99.90;;;;;;5055215;28;20655;-77
2023/08/20 04:14:30;;;;;;;11.27;6.10;;;18.00;99.90;;;;;;5054049;28;20279;-77
2023/08/20 04:16:56;;;;;;;14.43;5.90;;;17.90;99.90;;;;;;5056054;28;20204;-77
2023/08/20 04:19:21;;;;;;;14.03;6.03;;;18.00;99.90;;;;;;5055316;28;20199;-77
2023/08/20 04:21:47;;;;;;;18.53;5.87;;;17.90;99.90;;;;;;5055007;28;20220;-77
2023/08/20 04:24:12;;;;;;;17.07;6.50;;;17.80;99.90;;;;;;5055258;28;20172;-77
2023/08/20 04:26:38;;;;;;;11.77;6.00;;;17.90;99.90;;;;;;5055315;28;20647;-77
2023/08/20 04:29:03;;;;;;;15.30;5.80;;;17.90;99.90;;;;;;5055070;28;20537;-77
2023/08/20 04:31:29;;;;;;;11.43;6.70;;;17.80;99.90;;;;;;5040532;28;20636;-77
2023/08/20 04:33:54;;;;;;;14.73;5.83;;;17.80;99.90;;;;;;5035211;28;20173;-78
2023/08/20 04:36:20;;;;;;;9.97;6.33;;;17.80;99.90;;;;;;5034966;28;20234;-78
2023/08/20 04:38:45;;;;;;;11.20;6.40;;;18.00;99.90;;;;;;5035459;28;20228;-77
2023/08/20 04:41:11;;;;;;;9.70;6.90;;;17.80;99.90;;;;;;5035235;28;20192;-77
2023/08/20 04:43:37;;;;;;;9.87;6.60;;;18.00;99.90;;;;;;5035976;28;20648;-77
2023/08/20 04:46:02;;;;;;;12.50;8.13;;;17.70;99.90;;;;;;5035938;28;20168;-77
2023/08/20 04:48:28;;;;;;;13.93;8.47;;;17.80;99.90;;;;;;5035898;28;20172;-77
2023/08/20 04:50:53;;;;;;;13.17;7.03;;;17.80;99.90;;;;;;5035614;28;20197;-77
2023/08/20 04:53:19;;;;;;;11.07;6.20;;;17.80;99.90;;;;;;5035922;28;20172;-77
2023/08/20 04:55:44;;;;;;;9.80;5.83;;;17.70;99.90;;;;;;5051287;28;20674;-77
2023/08/20 04:58:10;;;;;;;8.63;5.80;;;17.70;99.90;;;;;;5056002;28;20676;-77
2023/08/20 05:00:35;;;;;;;11.37;6.07;;;17.70;99.90;;;;;;5055344;28;20283;-77
2023/08/20 05:03:01;;;;;;;8.90;5.93;;;17.70;99.90;;;;;;5055567;28;20199;-77
2023/08/20 05:05:26;;;;;;;13.80;6.03;;;17.70;99.90;;;;;;5054855;28;20183;-77
2023/08/20 05:07:52;;;;;;;14.60;5.63;;;17.70;99.90;;;;;;5054657;28;20535;-77
2023/08/20 05:10:18;;;;;;;14.07;6.30;;;17.70;99.90;;;;;;5052696;28;20183;-77
2023/08/20 05:12:43;;;;;;;12.03;5.23;;;17.70;99.90;;;;;;5053863;28;20199;-77
2023/08/20 05:15:09;;;;;;;9.87;5.40;;;17.70;99.90;;;;;;5054614;28;20179;-77
2023/08/20 05:17:34;;;;;;;11.70;5.47;;;17.70;99.90;;;;;;5055101;28;20274;-77
2023/08/20 05:20:00;;;;;;;9.67;5.50;;;17.90;99.90;;;;;;5054967;28;20191;-77
2023/08/20 05:22:26;;;;;;;12.57;5.47;;;17.80;99.90;;;;;;5055058;28;20707;-77
2023/08/20 05:24:51;;;;;;;8.47;5.03;;;17.70;99.90;;;;;;5055451;28;20198;-77
2023/08/20 05:27:17;;;;;;;11.47;5.63;;;17.70;99.90;;;;;;5053073;28;20720;-77
2023/08/20 05:29:43;;;;;;;11.40;5.63;;;17.70;99.90;;;;;;5053708;28;20558;-77
2023/08/20 05:32:09;;;;;;;13.87;6.17;;;17.70;99.90;;;;;;5054628;28;20192;-77
2023/08/20 05:34:35;;;;;;;10.20;5.70;;;17.70;99.90;;;;;;5054738;28;20225;-77
2023/08/20 05:37:00;;;;;;;9.87;5.80;;;17.70;99.90;;;;;;5054907;28;20176;-77
2023/08/20 05:39:26;;;;;;;9.30;5.63;;;17.70;99.90;;;;;;5054877;28;20597;-77
2023/08/20 05:41:53;;;;;;;9.13;5.80;;;17.70;99.90;;;;;;5046960;28;20211;-77
2023/08/20 05:44:19;;;;;;;6.47;5.27;;;17.70;99.90;;;;;;5034906;28;20665;-77
2023/08/20 05:46:45;;;;;;;8.03;5.50;;;17.70;99.90;;;;;;5047686;28;20206;-77
2023/08/20 05:49:13;;;;;;;10.47;5.53;;;17.70;99.90;;;;;;5054013;28;20190;-77
2023/08/20 05:51:38;;;;;;;13.87;5.83;;;17.70;99.90;;;;;;5054598;28;20187;-77
2023/08/20 05:54:04;;;;;;;11.77;6.80;;;17.90;99.90;;;;;;5052626;28;20179;-77
2023/08/20 05:56:30;;;;;;;11.97;6.60;;;17.80;99.90;;;;;;5054217;28;20172;-77
2023/08/20 05:58:56;;;;;;;7.87;6.27;;;17.80;99.90;;;;;;5051736;28;20204;-77
2023/08/20 06:01:21;;;;;;;8.87;6.43;;;17.80;99.90;;;;;;5053893;28;20179;-77
2023/08/20 06:03:46;;;;;;;10.50;6.50;;;17.90;99.90;;;;;;5052885;28;20229;-78
2023/08/20 06:06:12;;;;;;;8.50;6.87;;;17.90;99.90;;;;;;5052709;28;20167;-77
2023/08/20 06:08:38;;;;;;;11.07;6.93;;;17.90;99.90;;;;;;5054085;28;20175;-78
2023/08/20 06:11:03;;;;;;;9.03;7.30;;;18.00;99.90;;;;;;5053360;28;20195;-77
2023/08/20 06:13:29;;;;;;;9.73;7.67;;;18.00;99.90;;;;;;5053678;28;20546;-77
2023/08/20 06:15:54;;;;;;;12.47;8.20;;;18.10;99.90;;;;;;5050949;28;20736;-77
2023/08/20 06:18:20;;;;;;;13.63;8.67;;;18.20;99.90;;;;;;5052833;28;20168;-77
2023/08/20 06:20:45;;;;;;;14.23;8.17;;;18.10;99.90;;;;;;5053676;28;20193;-77
2023/08/20 06:23:12;;;;;;;11.10;7.43;;;18.20;99.90;;;;;;5053446;28;20179;-77
2023/08/20 06:25:37;;;;;;;11.37;7.60;;;18.20;99.90;;;;;;5053837;28;20174;-77
2023/08/20 06:28:03;;;;;;;11.57;8.23;;;18.30;99.90;;;;;;5053710;28;20195;-77
2023/08/20 06:30:28;;;;;;;13.17;9.73;;;18.30;99.90;;;;;;5049812;28;20179;-77
2023/08/20 06:32:54;;;;;;;9.20;7.33;;;18.40;99.90;;;;;;5051926;28;20605;-77
2023/08/20 06:35:19;;;;;;;16.50;12.17;;;18.40;99.90;;;;;;5053714;28;20185;-78
2023/08/20 06:37:45;;;;;;;13.07;11.03;;;18.60;99.90;;;;;;5053369;28;20695;-77
2023/08/20 06:40:11;;;;;;;11.97;8.80;;;18.50;99.90;;;;;;5053917;28;20532;-77
2023/08/20 06:42:36;;;;;;;15.00;10.97;;;18.60;99.90;;;;;;5053008;28;20562;-77
2023/08/20 06:45:02;;;;;;;15.57;11.87;;;18.60;99.90;;;;;;5053349;28;20249;-77
2023/08/20 06:47:27;;;;;;;15.57;11.33;;;18.70;99.90;;;;;;5047751;28;20202;-77
2023/08/20 06:49:53;;;;;;;13.93;10.93;;;18.80;99.90;;;;;;5050622;28;20715;-77
2023/08/20 06:52:18;;;;;;;17.00;11.97;;;18.80;99.90;;;;;;5054716;28;20768;-77
2023/08/20 06:54:44;;;;;;;14.63;11.87;;;18.90;99.90;;;;;;5054886;28;20632;-77
2023/08/20 06:57:10;;;;;;;17.07;11.77;;;18.90;99.90;;;;;;5054619;28;20639;-77
2023/08/20 06:59:35;;;;;;;13.17;10.10;;;19.00;99.90;;;;;;5054395;28;20560;-77
2023/08/20 07:02:03;;;;;;;14.70;11.83;;;19.10;99.90;;;;;;5043203;28;20211;-77
2023/08/20 07:04:28;;;;;;;15.60;11.20;;;19.10;99.90;;;;;;5034754;28;20199;-77
2023/08/20 07:06:54;;;;;;;19.77;15.50;;;19.20;99.90;;;;;;5032655;28;20172;-77
2023/08/20 07:09:19;;;;;;;22.40;15.63;;;19.20;99.90;;;;;;5034067;28;20214;-77
2023/08/20 07:11:45;;;;;;;20.60;15.07;;;19.30;99.90;;;;;;5034448;28;20188;-77
2023/08/20 07:14:10;;;;;;;24.50;16.57;;;19.40;99.90;;;;;;5034390;28;20184;-77
2023/08/20 07:16:36;;;;;;;27.67;17.73;;;19.40;99.90;;;;;;5034143;28;20175;-77
2023/08/20 07:19:02;;;;;;;21.33;15.83;;;19.70;99.90;;;;;;5033054;28;20684;-77
2023/08/20 07:21:27;;;;;;;24.30;16.20;;;19.60;99.90;;;;;;5033677;28;20188;-77
2023/08/20 07:23:53;;;;;;;20.80;15.97;;;19.60;99.90;;;;;;5033684;28;20595;-77
2023/08/20 07:26:18;;;;;;;23.83;16.70;;;19.70;99.90;;;;;;5032651;28;20516;-77
2023/08/20 07:28:56;;;;;;;22.20;17.20;;;19.70;99.90;;;;;;5033508;28;20652;-77
2023/08/20 07:31:25;;;;;;;23.10;17.30;;;20.00;99.90;;;;;;5035443;28;20193;-77
2023/08/20 07:33:52;;;;;;;17.67;15.77;;;19.70;99.90;;;;;;5042660;28;20663;-77
2023/08/20 07:36:19;;;;;;;24.97;17.17;;;20.00;99.90;;;;;;5056589;28;20210;-78
2023/08/20 07:38:44;;;;;;;22.80;19.33;;;20.10;99.90;;;;;;5058211;28;20226;-77
2023/08/20 07:41:13;;;;;;;22.37;18.53;;;20.10;99.90;;;;;;5058438;28;20187;-77
2023/08/20 07:43:40;;;;;;;20.73;15.23;;;20.20;99.90;;;;;;5058393;28;20639;-77
2023/08/20 07:46:07;;;;;;;18.17;13.80;;;20.20;99.90;;;;;;5043826;28;20187;-77
2023/08/20 07:48:33;;;;;;;19.13;15.23;;;20.20;99.90;;;;;;5037421;28;20168;-78
2023/08/20 07:50:59;;;;;;;18.70;14.23;;;20.40;99.90;;;;;;5049038;28;20218;-77
2023/08/20 07:53:25;;;;;;;14.80;11.90;;;20.50;99.90;;;;;;5058193;28;20172;-77
2023/08/20 07:55:50;;;;;;;16.20;12.50;;;20.40;99.90;;;;;;5059057;28;20581;-77
2023/08/20 07:58:16;;;;;;;22.73;16.70;;;20.70;99.90;;;;;;5056702;28;20167;-77
2023/08/20 08:00:42;;;;;;;21.87;14.53;;;20.80;99.90;;;;;;5056962;28;20210;-77
2023/08/20 08:03:09;;;;;;;18.83;14.83;;;20.80;99.90;;;;;;5056561;28;20175;-77
2023/08/20 08:05:35;;;;;;;18.73;13.50;;;20.90;99.90;;;;;;5058266;28;20174;-78
2023/08/20 08:08:00;;;;;;;20.20;14.93;;;21.00;99.90;;;;;;5057775;28;20167;-77
2023/08/20 08:10:26;;;;;;;19.37;13.30;;;21.00;99.90;;;;;;5056547;28;20183;-77
2023/08/20 08:12:51;;;;;;;17.47;14.20;;;21.20;99.90;;;;;;5057604;28;20309;-77
2023/08/20 08:15:17;;;;;;;21.83;13.90;;;21.10;99.90;;;;;;5055467;28;20191;-77
2023/08/20 08:17:43;;;;;;;16.83;13.90;;;21.10;99.90;;;;;;5057187;28;20171;-77
2023/08/20 08:20:09;;;;;;;16.80;12.60;;;21.20;99.90;;;;;;5057334;28;20198;-77
2023/08/20 08:22:34;;;;;;;18.10;13.30;;;21.30;99.90;;;;;;5057125;28;20281;-77
2023/08/20 08:25:00;;;;;;;13.73;11.90;;;21.60;99.90;;;;;;5057534;28;20578;-77
2023/08/20 08:27:25;;;;;;;15.77;12.30;;;21.50;99.90;;;;;;5056149;28;20632;-77
2023/08/20 08:29:51;;;;;;;15.40;11.57;;;21.50;99.90;;;;;;5054709;28;20200;-78
2023/08/20 08:32:18;;;;;;;17.90;12.53;;;21.70;99.90;;;;;;5056900;28;20306;-77
2023/08/20 08:34:43;;;;;;;12.90;10.43;;;21.70;99.90;;;;;;5056751;28;20609;-77
2023/08/20 08:37:09;;;;;;;15.77;10.50;;;21.70;99.90;;;;;;5056838;28;20246;-77
2023/08/20 08:39:34;;;;;;;14.07;11.43;;;21.80;99.90;;;;;;5055694;28;20273;-77
2023/08/20 08:42:04;;;;;;;13.73;11.57;;;21.70;99.90;;;;;;5055144;28;20195;-78
2023/08/20 08:44:34;;;;;;;12.97;10.43;;;21.80;99.90;;;;;;5057125;28;20210;-77
2023/08/20 08:47:04;;;;;;;11.63;8.43;;;21.90;99.90;;;;;;5045170;28;20184;-77
2023/08/20 08:49:33;;;;;;;12.03;8.23;;;22.00;99.90;;;;;;5036909;28;20164;-77
2023/08/20 08:51:59;;;;;;;9.20;8.30;;;22.10;99.90;;;;;;5037165;28;20637;-78
2023/08/20 08:54:26;;;;;;;9.53;7.77;;;22.20;99.90;;;;;;5037397;28;20215;-77
2023/08/20 08:56:51;;;;;;;12.57;8.23;;;22.20;99.90;;;;;;5037214;28;20256;-78
2023/08/20 08:59:17;;;;;;;11.40;9.50;;;22.40;99.90;;;;;;5036857;28;20766;-78
2023/08/20 09:01:43;;;;;;;10.80;7.00;;;22.50;99.90;;;;;;5037789;28;20695;-78
2023/08/20 09:04:08;;;;;;;10.67;6.10;;;22.70;99.90;;;;;;5036983;28;20181;-77
2023/08/20 09:06:50;;;;;;;8.53;5.50;;;22.80;99.90;;;;;;5036457;28;20536;-77
2023/08/20 09:09:20;;;;;;;7.50;4.30;;;22.80;99.90;;;;;;5036744;28;20628;-77
2023/08/20 09:11:47;;;;;;;7.60;4.10;;;22.90;99.90;;;;;;5036006;28;20192;-78
2023/08/20 09:14:23;;;;;;;5.40;3.47;;;23.00;99.90;;;;;;5035178;28;20594;-78
2023/08/20 09:16:59;;;;;;;5.17;4.00;;;23.10;99.90;;;;;;5035816;28;20241;-78
2023/08/20 09:19:27;;;;;;;12.00;5.07;;;23.10;99.90;;;;;;5051347;28;20222;-77
2023/08/20 09:21:55;;;;;;;8.00;4.47;;;23.30;99.90;;;;;;5056033;28;20266;-77
2023/08/20 09:24:42;;;;;;;7.97;5.90;;;23.40;99.90;;;;;;5055840;28;20259;-78
2023/08/20 09:27:08;;;;;;;6.90;5.03;;;23.50;99.90;;;;;;5056097;28;20812;-78
2023/08/20 09:29:43;;;;;;;8.37;6.13;;;23.50;99.90;;;;;;5055815;28;20217;-78
2023/08/20 09:32:17;;;;;;;16.83;10.53;;;23.70;99.90;;;;;;5055940;28;20215;-78
2023/08/20 09:34:43;;;;;;;22.20;12.40;;;23.90;99.90;;;;;;5053445;28;20591;-77
2023/08/20 09:37:12;;;;;;;17.77;11.53;;;23.90;99.90;;;;;;5045221;28;20227;-78
2023/08/20 09:39:38;;;;;;;16.00;11.00;;;24.00;99.90;;;;;;5036286;28;20196;-78
2023/08/20 09:42:05;;;;;;;15.67;10.03;;;24.20;99.90;;;;;;5035850;28;20195;-78
2023/08/20 09:44:44;;;;;;;21.83;11.17;;;24.30;99.90;;;;;;5035014;28;20251;-78
2023/08/20 09:47:12;;;;;;;17.83;10.90;;;24.30;99.90;;;;;;5035246;28;20180;-78
2023/08/20 09:49:41;;;;;;;18.97;10.87;;;24.30;99.90;;;;;;5035598;28;20251;-77
2023/08/20 09:52:10;;;;;;;14.80;9.47;;;24.20;99.90;;;;;;5035021;28;20188;-77
2023/08/20 09:54:59;;;;;;;17.13;11.87;;;24.10;99.90;;;;;;5034268;28;20176;-78
2023/08/20 09:57:35;;;;;;;14.33;9.80;;;24.10;99.90;;;;;;5034890;28;20166;-77
2023/08/20 10:00:03;;;;;;;14.10;10.65;;;24.20;99.90;;;;;;5048312;28;20195;-78
2023/08/20 10:02:29;;;;;;;14.53;11.40;;;24.40;99.90;;;;;;5041951;28;20249;-78
2023/08/20 10:04:55;;;;;;;12.23;10.53;;;24.40;99.90;;;;;;5047043;28;20188;-77
2023/08/20 10:07:24;;;;;;;12.60;8.90;;;24.50;99.90;;;;;;5033378;28;20176;-78
2023/08/20 10:09:50;;;;;;;10.40;9.37;;;24.50;99.90;;;;;;5034831;28;20172;-77
2023/08/20 10:12:16;;;;;;;9.80;8.63;;;24.60;99.90;;;;;;5034450;28;20203;-77
2023/08/20 10:14:42;;;;;;;13.43;9.87;;;24.60;99.90;;;;;;5035217;28;20176;-78
2023/08/20 10:17:09;;;;;;;9.30;8.33;;;24.60;99.90;;;;;;5037870;28;20651;-79
2023/08/20 10:19:38;;;;;;;12.43;9.20;;;24.70;99.90;;;;;;5049644;28;20239;-78
2023/08/20 10:22:06;;;;;;;13.57;10.15;;;24.70;1.00;;;;;;5035112;28;20238;-78
2023/08/20 10:24:47;;;;;;;16.53;12.37;;;24.70;99.90;;;;;;5035268;28;20180;-78
2023/08/20 10:27:13;;;;;;;12.43;11.07;;;24.80;99.90;;;;;;5034745;28;20176;-77
2023/08/20 10:29:42;;;;;;;12.50;9.97;;;24.70;1.00;;;;;;5034545;28;20187;-78
2023/08/20 10:32:12;;;;;;;11.90;9.33;;;24.80;99.90;;;;;;5034703;28;20196;-78
2023/08/20 10:34:42;;;;;;;15.52;11.35;;;24.80;1.00;;;;;;5048176;28;20184;-79
2023/08/20 10:37:14;;;;;;;13.60;11.93;;;25.00;1.00;;;;;;5055041;28;20269;-78
2023/08/20 10:39:42;;;;;;;27.25;13.10;;;25.30;1.00;;;;;;5054820;28;20549;-78
2023/08/20 10:42:28;;;;;;;14.18;11.80;;;25.40;99.90;;;;;;5054615;28;20245;-78
2023/08/20 10:45:08;;;;;;;14.73;12.43;;;25.30;99.90;;;;;;5055199;28;20666;-78
2023/08/20 10:47:44;;;;;;;12.77;11.48;;;25.40;99.90;;;;;;5055107;28;20148;-78
2023/08/20 10:50:14;;;;;;;12.25;10.38;;;25.20;99.90;;;;;;5041880;28;20191;-78
2023/08/20 10:52:54;;;;;;;13.27;11.75;;;25.20;1.00;;;;;;5034377;28;20223;-78
2023/08/20 10:55:23;;;;;;;12.68;11.35;;;25.30;99.90;;;;;;5034166;28;20160;-78
2023/08/20 10:57:56;;;;;;;14.77;11.00;;;25.40;99.90;;;;;;5034489;28;20608;-78
2023/08/20 11:00:22;;;;;;;14.40;12.10;;;25.30;1.00;;;;;;5033806;28;20191;-77
2023/08/20 11:02:49;;;;;;;12.13;10.13;;;25.20;99.90;;;;;;5034292;28;20203;-78
2023/08/20 11:05:21;;;;;;;12.85;10.70;;;25.30;99.90;;;;;;5041603;28;20179;-78
2023/08/20 11:07:47;;;;;;;15.88;12.07;;;25.30;99.90;;;;;;5058009;28;20175;-78
2023/08/20 11:10:14;;;;;;;18.42;11.50;;;25.30;99.90;;;;;;5058049;28;20266;-78
2023/08/20 11:12:41;;;;;;;13.00;9.60;;;25.30;99.90;;;;;;5057797;28;20202;-78
2023/08/20 11:15:09;;;;;;;11.73;9.27;;;25.50;99.90;;;;;;5056685;28;20188;-78
2023/08/20 11:17:39;;;;;;;9.20;6.90;;;25.70;99.90;;;;;;5058507;28;20218;-78
2023/08/20 11:20:07;;;;;;;9.07;6.28;;;25.90;99.90;;;;;;5058199;28;20210;-78
2023/08/20 11:22:33;;;;;;;7.03;5.30;;;25.80;99.90;;;;;;5055696;28;20199;-78
2023/08/20 11:25:00;;;;;;;4.78;4.35;;;25.80;99.90;;;;;;5056708;28;20183;-77
2023/08/20 11:27:28;;;;;;;4.97;4.43;;;25.80;99.90;;;;;;5057398;28;20199;-78
2023/08/20 11:29:56;;;;;;;6.25;5.32;;;25.80;99.90;;;;;;5058011;28;20205;-77
2023/08/20 11:32:23;;;;;;;5.68;4.35;;;25.80;99.90;;;;;;5058144;28;20297;-77
2023/08/20 11:34:49;;;;;;;5.75;4.07;;;26.00;99.90;;;;;;5058002;28;20233;-78
2023/08/20 11:37:18;;;;;;;4.82;4.10;;;26.00;99.90;;;;;;5046306;28;20188;-78
2023/08/20 11:39:44;;;;;;;6.00;4.05;;;26.00;99.90;;;;;;5054925;28;20234;-78
2023/08/20 11:42:10;;;;;;;5.65;4.63;;;25.90;99.90;;;;;;5057854;28;20611;-77
2023/08/20 11:44:44;;;;;;;4.90;4.40;;;25.90;99.90;;;;;;5055920;28;20176;-78
2023/08/20 11:47:17;;;;;;;4.85;4.10;;;25.90;99.90;;;;;;5045374;28;20258;-78
2023/08/20 11:49:43;;;;;;;5.47;4.80;;;25.70;99.90;;;;;;5056963;28;20175;-78
2023/08/20 11:52:09;;;;;;;6.15;4.57;;;25.70;99.90;;;;;;5057473;28;20203;-78
2023/08/20 11:54:36;;;;;;;4.90;4.03;;;25.70;99.90;;;;;;5056888;28;20254;-78
2023/08/20 11:57:06;;;;;;;5.28;4.05;;;25.80;99.90;;;;;;5057262;28;20178;-78
2023/08/20 11:59:31;;;;;;;6.65;3.95;;;25.80;99.90;;;;;;5053347;28;20227;-78
2023/08/20 12:02:03;;;;;;;6.68;4.10;;;25.80;99.90;;;;;;5048923;28;20622;-78
2023/08/20 12:04:29;;;;;;;5.53;4.00;;;25.90;99.90;;;;;;5057716;28;20178;-77
2023/08/20 12:07:04;;;;;;;5.25;4.10;;;26.10;99.90;;;;;;5057677;28;20167;-78
2023/08/20 12:09:31;;;;;;;9.13;4.72;;;26.20;13.40;;;;;;5058380;28;20539;-78
2023/08/20 12:11:57;;;;;;;7.60;4.35;;;26.20;78.90;;;;;;5057797;28;20222;-78
2023/08/20 12:14:23;;;;;;;7.10;4.43;;;26.20;99.90;;;;;;5055036;28;20174;-78
2023/08/20 12:16:52;;;;;;;7.22;5.03;;;26.20;99.90;;;;;;5057106;28;20186;-78
2023/08/20 12:19:18;;;;;;;5.95;4.45;;;26.20;99.90;;;;;;5056993;28;20206;-78
2023/08/20 12:21:44;;;;;;;9.13;5.00;;;26.30;99.90;;;;;;5057603;28;20187;-77
2023/08/20 12:24:10;;;;;;;7.22;4.80;;;26.00;99.90;;;;;;5056570;28;20171;-78
2023/08/20 12:26:40;;;;;;;8.68;4.70;;;26.10;99.90;;;;;;5057278;28;20225;-78
2023/08/20 12:29:06;;;;;;;8.80;4.90;;;26.00;99.90;;;;;;5056615;28;20192;-78
2023/08/20 12:31:33;;;;;;;6.53;4.40;;;26.00;99.90;;;;;;5054641;28;20304;-77
2023/08/20 12:33:59;;;;;;;9.35;4.32;;;26.00;99.90;;;;;;5056890;28;20179;-78
2023/08/20 12:36:24;;;;;;;4.38;3.53;;;25.90;99.90;;;;;;5056576;28;20297;-77